createdAt,value
2019-03-08T00:00:07.122Z,991.31
2019-03-08T00:00:33.252Z,991.32
2019-03-08T00:00:59.456Z,991.27
2019-03-08T00:01:25.565Z,991.44
2019-03-08T00:01:51.700Z,991.3
2019-03-08T00:02:17.803Z,991.34
2019-03-08T00:02:43.905Z,991.36
2019-03-08T00:03:10.237Z,991.45
2019-03-08T00:03:36.372Z,991.42
2019-03-08T00:04:02.635Z,991.43
2019-03-08T00:04:28.775Z,991.56
2019-03-08T00:04:54.876Z,991.34
2019-03-08T00:05:21.388Z,991.42
2019-03-08T00:05:47.503Z,991.38
2019-03-08T00:06:13.598Z,991.44
2019-03-08T00:06:39.815Z,991.29
2019-03-08T00:07:05.926Z,991.4
2019-03-08T00:07:32.226Z,991.34
2019-03-08T00:07:58.327Z,991.55
2019-03-08T00:08:24.437Z,991.34
2019-03-08T00:08:50.748Z,991.44
2019-03-08T00:09:16.843Z,991.57
2019-03-08T00:09:42.946Z,991.45
2019-03-08T00:10:09.087Z,991.44
2019-03-08T00:10:35.198Z,991.55
2019-03-08T00:11:01.490Z,991.5
2019-03-08T00:11:27.594Z,991.47
2019-03-08T00:11:53.700Z,991.48
2019-03-08T00:12:20.579Z,991.53
2019-03-08T00:12:46.687Z,991.36
2019-03-08T00:13:12.964Z,991.36
2019-03-08T00:13:39.059Z,991.39
2019-03-08T00:14:05.165Z,991.4
2019-03-08T00:14:31.295Z,991.53
2019-03-08T00:14:57.398Z,991.58
2019-03-08T00:15:23.541Z,991.6
2019-03-08T00:15:49.956Z,991.52
2019-03-08T00:16:16.064Z,991.52
2019-03-08T00:16:42.556Z,991.44
2019-03-08T00:17:08.675Z,991.32
2019-03-08T00:17:34.775Z,991.51
2019-03-08T00:18:01.885Z,991.7
2019-03-08T00:18:27.988Z,991.65
2019-03-08T00:18:54.283Z,991.55
2019-03-08T00:19:20.782Z,991.67
2019-03-08T00:19:46.887Z,991.57
2019-03-08T00:20:13.217Z,991.69
2019-03-08T00:20:39.327Z,991.61
2019-03-08T00:21:05.425Z,991.69
2019-03-08T00:21:31.823Z,991.62
2019-03-08T00:21:57.932Z,991.67
2019-03-08T00:22:24.340Z,991.64
2019-03-08T00:22:50.473Z,991.77
2019-03-08T00:23:16.577Z,991.56
2019-03-08T00:23:42.818Z,991.43
2019-03-08T00:24:08.947Z,991.67
2019-03-08T00:24:35.052Z,991.51
2019-03-08T00:25:01.186Z,991.63
2019-03-08T00:25:27.294Z,991.65
2019-03-08T00:25:54.280Z,991.73
2019-03-08T00:26:20.379Z,991.61
2019-03-08T00:26:46.486Z,991.63
2019-03-08T00:27:12.698Z,991.46
2019-03-08T00:27:38.858Z,991.44
2019-03-08T00:28:05.194Z,991.62
2019-03-08T00:28:31.300Z,991.57
2019-03-08T00:28:57.407Z,991.69
2019-03-08T00:29:23.653Z,991.7
2019-03-08T00:29:49.765Z,991.8
2019-03-08T00:30:16.011Z,991.66
2019-03-08T00:30:42.303Z,991.97
2019-03-08T00:31:08.403Z,991.65
2019-03-08T00:31:34.739Z,991.7
2019-03-08T00:32:00.892Z,991.87
2019-03-08T00:32:26.995Z,991.74
2019-03-08T00:32:53.322Z,991.73
2019-03-08T00:33:19.432Z,991.78
2019-03-08T00:33:45.756Z,991.75
2019-03-08T00:34:11.864Z,991.77
2019-03-08T00:34:38.027Z,991.98
2019-03-08T00:35:04.289Z,991.8
2019-03-08T00:35:30.403Z,991.76
2019-03-08T00:35:56.514Z,991.8
2019-03-08T00:36:22.910Z,991.79
2019-03-08T00:36:49.020Z,991.92
2019-03-08T00:37:15.283Z,991.86
2019-03-08T00:37:41.415Z,991.75
2019-03-08T00:38:07.527Z,991.91
2019-03-08T00:38:33.723Z,992
2019-03-08T00:38:59.830Z,991.95
2019-03-08T00:39:25.944Z,991.95
2019-03-08T00:39:52.241Z,991.78
2019-03-08T00:40:18.344Z,991.89
2019-03-08T00:40:44.588Z,991.93
2019-03-08T00:41:10.687Z,991.96
2019-03-08T00:41:36.820Z,991.83
2019-03-08T00:42:03.118Z,991.93
2019-03-08T00:42:29.216Z,991.92
2019-03-08T00:42:55.477Z,991.81
2019-03-08T00:43:21.586Z,991.96
2019-03-08T00:43:47.688Z,991.99
2019-03-08T00:44:14.023Z,991.92
2019-03-08T00:44:40.132Z,991.97
2019-03-08T00:45:06.264Z,991.98
2019-03-08T00:45:32.563Z,991.96
2019-03-08T00:45:58.665Z,992
2019-03-08T00:46:24.813Z,992.01
2019-03-08T00:46:50.924Z,992.08
2019-03-08T00:47:17.054Z,992.06
2019-03-08T00:47:43.692Z,991.99
2019-03-08T00:48:09.807Z,992.1
2019-03-08T00:48:35.909Z,992.09
2019-03-08T00:49:02.159Z,992.1
2019-03-08T00:49:28.277Z,992.15
2019-03-08T00:49:54.518Z,992.23
2019-03-08T00:50:20.657Z,992.15
2019-03-08T00:50:46.767Z,992.04
2019-03-08T00:51:13.025Z,992.09
2019-03-08T00:51:39.161Z,992.14
2019-03-08T00:52:05.414Z,992.18
2019-03-08T00:52:32.989Z,992.02
2019-03-08T00:52:58.617Z,992.09
2019-03-08T00:53:25.836Z,992.06
2019-03-08T00:53:51.951Z,992.18
2019-03-08T00:54:18.058Z,992.22
2019-03-08T00:54:44.271Z,992.21
2019-03-08T00:55:10.375Z,992.13
2019-03-08T00:55:36.616Z,992.18
2019-03-08T00:56:02.716Z,992.1
2019-03-08T00:56:28.820Z,992.19
2019-03-08T00:56:55.480Z,992.26
2019-03-08T00:57:21.583Z,992.25
2019-03-08T00:57:47.710Z,992.17
2019-03-08T00:58:13.816Z,992.3
2019-03-08T00:58:39.926Z,992.24
2019-03-08T00:59:06.179Z,992.35
2019-03-08T00:59:32.291Z,992.33
2019-03-08T00:59:58.403Z,992.32
2019-03-08T01:00:24.801Z,992.27
2019-03-08T01:00:50.898Z,992.24
2019-03-08T01:01:17.132Z,992.26
2019-03-08T01:01:43.240Z,992.32
2019-03-08T01:02:09.344Z,992.35
2019-03-08T01:02:35.873Z,992.29
2019-03-08T01:03:01.950Z,992.29
2019-03-08T01:03:28.272Z,992.27
2019-03-08T01:03:54.419Z,992.24
2019-03-08T01:04:20.519Z,992.43
2019-03-08T01:04:46.847Z,992.32
2019-03-08T01:05:12.966Z,992.23
2019-03-08T01:05:40.116Z,992.28
2019-03-08T01:06:06.443Z,992.32
2019-03-08T01:06:32.551Z,992.33
2019-03-08T01:06:58.809Z,992.35
2019-03-08T01:07:24.915Z,992.3
2019-03-08T01:07:51.046Z,992.41
2019-03-08T01:08:17.296Z,992.3
2019-03-08T01:08:43.402Z,992.37
2019-03-08T01:09:09.505Z,992.31
2019-03-08T01:09:35.804Z,992.42
2019-03-08T01:10:01.909Z,992.47
2019-03-08T01:10:28.222Z,992.38
2019-03-08T01:10:54.327Z,992.43
2019-03-08T01:11:20.431Z,992.43
2019-03-08T01:11:46.721Z,992.47
2019-03-08T01:12:12.820Z,992.39
2019-03-08T01:12:39.164Z,992.39
2019-03-08T01:13:05.270Z,992.39
2019-03-08T01:13:31.367Z,992.28
2019-03-08T01:13:57.622Z,992.28
2019-03-08T01:14:23.722Z,992.24
2019-03-08T01:14:51.246Z,992.59
2019-03-08T01:15:17.460Z,992.34
2019-03-08T01:15:43.576Z,992.42
2019-03-08T01:16:09.864Z,992.39
2019-03-08T01:16:36.505Z,992.34
2019-03-08T01:17:02.621Z,992.41
2019-03-08T01:17:28.917Z,992.23
2019-03-08T01:17:55.024Z,992.38
2019-03-08T01:18:21.333Z,992.29
2019-03-08T01:18:47.447Z,992.43
2019-03-08T01:19:13.549Z,992.46
2019-03-08T01:19:39.768Z,992.64
2019-03-08T01:20:05.875Z,992.37
2019-03-08T01:20:31.989Z,992.41
2019-03-08T01:20:58.288Z,992.4
2019-03-08T01:21:24.419Z,992.39
2019-03-08T01:21:50.881Z,992.3
2019-03-08T01:22:16.984Z,992.42
2019-03-08T01:22:43.093Z,992.35
2019-03-08T01:23:09.410Z,992.16
2019-03-08T01:23:35.514Z,992.36
2019-03-08T01:24:01.619Z,992.44
2019-03-08T01:24:27.824Z,992.45
2019-03-08T01:24:53.935Z,992.44
2019-03-08T01:25:21.508Z,992.45
2019-03-08T01:25:47.278Z,992.44
2019-03-08T01:26:13.390Z,992.45
2019-03-08T01:26:39.619Z,992.44
2019-03-08T01:27:05.729Z,992.46
2019-03-08T01:27:32.051Z,992.46
2019-03-08T01:27:58.160Z,992.46
2019-03-08T01:28:24.270Z,992.44
2019-03-08T01:28:50.489Z,992.6
2019-03-08T01:29:16.595Z,992.54
2019-03-08T01:29:42.705Z,992.51
2019-03-08T01:30:09.009Z,992.57
2019-03-08T01:30:35.141Z,992.58
2019-03-08T01:31:01.421Z,992.4
2019-03-08T01:31:27.533Z,992.63
2019-03-08T01:31:53.650Z,992.67
2019-03-08T01:32:20.923Z,992.61
2019-03-08T01:32:47.030Z,992.59
2019-03-08T01:33:13.165Z,992.6
2019-03-08T01:33:39.275Z,992.58
2019-03-08T01:34:05.377Z,992.67
2019-03-08T01:34:31.502Z,992.7
2019-03-08T01:34:57.612Z,992.61
2019-03-08T01:35:24.706Z,992.61
2019-03-08T01:35:51.055Z,992.62
2019-03-08T01:36:17.152Z,992.64
2019-03-08T01:36:43.367Z,992.64
2019-03-08T01:37:09.470Z,992.76
2019-03-08T01:37:36.211Z,992.63
2019-03-08T01:38:02.339Z,992.71
2019-03-08T01:38:28.448Z,992.59
2019-03-08T01:38:54.572Z,992.7
2019-03-08T01:39:20.681Z,992.83
2019-03-08T01:39:46.786Z,992.65
2019-03-08T01:40:12.970Z,992.73
2019-03-08T01:40:39.111Z,992.75
2019-03-08T01:41:05.208Z,992.72
2019-03-08T01:41:31.491Z,992.7
2019-03-08T01:41:57.593Z,992.91
2019-03-08T01:42:23.899Z,992.63
2019-03-08T01:42:49.998Z,992.71
2019-03-08T01:43:16.111Z,992.77
2019-03-08T01:43:42.522Z,992.87
2019-03-08T01:44:08.625Z,992.85
2019-03-08T01:44:34.963Z,992.95
2019-03-08T01:45:01.215Z,992.81
2019-03-08T01:45:27.343Z,992.98
2019-03-08T01:45:53.671Z,992.86
2019-03-08T01:46:19.807Z,992.91
2019-03-08T01:46:45.912Z,992.94
2019-03-08T01:47:12.188Z,992.92
2019-03-08T01:47:38.294Z,992.92
2019-03-08T01:48:04.606Z,992.86
2019-03-08T01:48:30.716Z,993
2019-03-08T01:48:56.824Z,992.97
2019-03-08T01:49:23.084Z,993.02
2019-03-08T01:49:49.191Z,992.98
2019-03-08T01:50:15.299Z,993.09
2019-03-08T01:50:41.533Z,993.09
2019-03-08T01:51:07.641Z,993.06
2019-03-08T01:51:33.945Z,993.19
2019-03-08T01:52:00.041Z,993.08
2019-03-08T01:52:26.148Z,993.17
2019-03-08T01:52:52.577Z,993.06
2019-03-08T01:53:18.677Z,993.09
2019-03-08T01:53:44.955Z,993.27
2019-03-08T01:54:11.069Z,993.17
2019-03-08T01:54:37.165Z,993.24
2019-03-08T01:55:03.450Z,993.28
2019-03-08T01:55:29.557Z,993.24
2019-03-08T01:55:55.668Z,993.26
2019-03-08T01:56:22.006Z,993.32
2019-03-08T01:56:48.186Z,993.26
2019-03-08T01:57:14.414Z,993.34
2019-03-08T01:57:40.521Z,993.4
2019-03-08T01:58:06.633Z,993.33
2019-03-08T01:58:32.827Z,993.4
2019-03-08T01:58:58.933Z,993.46
2019-03-08T01:59:25.039Z,993.5
2019-03-08T01:59:51.277Z,993.55
2019-03-08T02:00:17.411Z,993.56
2019-03-08T02:00:43.694Z,993.48
2019-03-08T02:01:09.805Z,993.61
2019-03-08T02:01:35.907Z,993.53
2019-03-08T02:02:02.238Z,993.64
2019-03-08T02:02:28.350Z,993.54
2019-03-08T02:02:54.704Z,993.52
2019-03-08T02:03:21.804Z,993.6
2019-03-08T02:03:47.899Z,993.62
2019-03-08T02:04:14.120Z,993.59
2019-03-08T02:04:40.256Z,993.63
2019-03-08T02:05:06.360Z,993.81
2019-03-08T02:05:32.606Z,993.67
2019-03-08T02:05:58.713Z,993.64
2019-03-08T02:06:24.942Z,993.69
2019-03-08T02:06:51.050Z,993.67
2019-03-08T02:07:17.154Z,993.77
2019-03-08T02:07:43.723Z,993.73
2019-03-08T02:08:09.836Z,993.62
2019-03-08T02:08:36.084Z,993.64
2019-03-08T02:09:02.197Z,993.78
2019-03-08T02:09:28.294Z,993.59
2019-03-08T02:09:54.510Z,993.74
2019-03-08T02:10:20.619Z,993.7
2019-03-08T02:10:46.723Z,993.73
2019-03-08T02:11:13.062Z,993.83
2019-03-08T02:11:39.174Z,993.79
2019-03-08T02:12:05.385Z,993.62
2019-03-08T02:12:31.493Z,993.83
2019-03-08T02:12:57.849Z,993.74
2019-03-08T02:13:24.219Z,993.76
2019-03-08T02:13:50.329Z,993.65
2019-03-08T02:14:16.627Z,993.73
2019-03-08T02:14:42.786Z,993.67
2019-03-08T02:15:08.898Z,993.54
2019-03-08T02:15:35.105Z,993.84
2019-03-08T02:16:01.215Z,993.82
2019-03-08T02:16:27.322Z,993.8
2019-03-08T02:16:53.548Z,993.67
2019-03-08T02:17:19.653Z,993.76
2019-03-08T02:17:45.905Z,993.79
2019-03-08T02:18:12.012Z,993.77
2019-03-08T02:18:38.118Z,993.7
2019-03-08T02:19:04.377Z,993.64
2019-03-08T02:19:30.485Z,993.76
2019-03-08T02:19:56.587Z,993.76
2019-03-08T02:20:22.801Z,993.78
2019-03-08T02:20:48.899Z,993.72
2019-03-08T02:21:16.986Z,993.83
2019-03-08T02:21:43.094Z,993.74
2019-03-08T02:22:09.200Z,993.82
2019-03-08T02:22:35.450Z,993.81
2019-03-08T02:23:01.582Z,993.64
2019-03-08T02:23:27.846Z,993.83
2019-03-08T02:23:53.950Z,993.76
2019-03-08T02:24:20.054Z,993.82
2019-03-08T02:24:46.350Z,993.81
2019-03-08T02:25:12.462Z,993.77
2019-03-08T02:25:38.563Z,993.79
2019-03-08T02:26:05.805Z,993.81
2019-03-08T02:26:31.909Z,993.64
2019-03-08T02:26:58.203Z,993.73
2019-03-08T02:27:24.315Z,993.79
2019-03-08T02:27:50.439Z,993.87
2019-03-08T02:28:16.814Z,993.82
2019-03-08T02:28:42.891Z,993.72
2019-03-08T02:29:09.220Z,993.84
2019-03-08T02:29:35.328Z,993.79
2019-03-08T02:30:01.432Z,993.96
2019-03-08T02:30:27.800Z,993.8
2019-03-08T02:30:53.967Z,993.9
2019-03-08T02:31:20.069Z,993.81
2019-03-08T02:31:46.272Z,993.75
2019-03-08T02:32:12.375Z,993.81
2019-03-08T02:32:38.570Z,993.9
2019-03-08T02:33:04.678Z,993.84
2019-03-08T02:33:30.779Z,993.76
2019-03-08T02:33:57.055Z,993.95
2019-03-08T02:34:23.187Z,993.79
2019-03-08T02:34:49.279Z,993.91
2019-03-08T02:35:15.561Z,993.65
2019-03-08T02:35:41.667Z,993.77
2019-03-08T02:36:07.970Z,993.83
2019-03-08T02:36:34.107Z,993.83
2019-03-08T02:37:00.239Z,993.93
2019-03-08T02:37:26.562Z,993.9
2019-03-08T02:37:52.671Z,993.86
2019-03-08T02:38:18.802Z,993.88
2019-03-08T02:38:44.899Z,993.84
2019-03-08T02:39:11.006Z,993.84
2019-03-08T02:39:38.110Z,993.82
2019-03-08T02:40:04.238Z,993.78
2019-03-08T02:40:30.345Z,993.74
2019-03-08T02:40:56.697Z,993.89
2019-03-08T02:41:22.803Z,993.89
2019-03-08T02:41:49.001Z,993.76
2019-03-08T02:42:15.105Z,993.88
2019-03-08T02:42:41.212Z,993.93
2019-03-08T02:43:07.496Z,993.8
2019-03-08T02:43:33.611Z,993.78
2019-03-08T02:43:59.879Z,993.89
2019-03-08T02:44:26.014Z,993.82
2019-03-08T02:44:52.119Z,993.89
2019-03-08T02:45:18.618Z,993.89
2019-03-08T02:45:44.715Z,993.76
2019-03-08T02:46:10.820Z,993.78
2019-03-08T02:46:37.058Z,993.8
2019-03-08T02:47:03.189Z,993.83
2019-03-08T02:47:29.495Z,993.79
2019-03-08T02:47:55.592Z,993.79
2019-03-08T02:48:21.723Z,993.83
2019-03-08T02:48:47.899Z,993.85
2019-03-08T02:49:14.010Z,993.89
2019-03-08T02:49:40.116Z,993.92
2019-03-08T02:50:06.397Z,993.83
2019-03-08T02:50:32.498Z,993.82
2019-03-08T02:50:58.718Z,993.79
2019-03-08T02:51:24.821Z,993.85
2019-03-08T02:51:50.932Z,993.86
2019-03-08T02:52:17.190Z,993.83
2019-03-08T02:52:43.297Z,993.77
2019-03-08T02:53:09.624Z,993.77
2019-03-08T02:53:35.732Z,993.75
2019-03-08T02:54:01.839Z,993.79
2019-03-08T02:54:28.177Z,993.94
2019-03-08T02:54:55.270Z,993.85
2019-03-08T02:55:21.380Z,993.9
2019-03-08T02:55:47.683Z,993.81
2019-03-08T02:56:13.814Z,993.79
2019-03-08T02:56:40.142Z,993.87
2019-03-08T02:57:06.274Z,993.71
2019-03-08T02:57:32.384Z,993.9
2019-03-08T02:57:58.654Z,993.87
2019-03-08T02:58:24.788Z,993.85
2019-03-08T02:58:51.065Z,993.75
2019-03-08T02:59:17.174Z,993.92
2019-03-08T02:59:43.282Z,993.95
2019-03-08T03:00:09.547Z,993.87
2019-03-08T03:00:35.656Z,993.94
2019-03-08T03:01:01.781Z,993.91
2019-03-08T03:01:28.149Z,993.89
2019-03-08T03:01:54.281Z,993.94
2019-03-08T03:02:20.738Z,993.9
2019-03-08T03:02:46.842Z,993.94
2019-03-08T03:03:12.946Z,993.94
2019-03-08T03:03:39.437Z,993.82
2019-03-08T03:04:05.532Z,994.01
2019-03-08T03:04:31.869Z,993.81
2019-03-08T03:04:57.986Z,993.89
2019-03-08T03:05:24.096Z,993.88
2019-03-08T03:05:51.191Z,993.85
2019-03-08T03:06:17.301Z,994.16
2019-03-08T03:06:43.399Z,993.8
2019-03-08T03:07:09.681Z,994.15
2019-03-08T03:07:35.785Z,994.13
2019-03-08T03:08:02.158Z,994.06
2019-03-08T03:08:28.264Z,993.96
2019-03-08T03:08:54.367Z,993.98
2019-03-08T03:09:20.649Z,993.99
2019-03-08T03:09:46.782Z,994.09
2019-03-08T03:10:13.076Z,993.96
2019-03-08T03:10:39.314Z,994.04
2019-03-08T03:11:05.424Z,994.1
2019-03-08T03:11:31.671Z,994.02
2019-03-08T03:11:57.771Z,994.03
2019-03-08T03:12:23.869Z,994.09
2019-03-08T03:12:50.023Z,994.06
2019-03-08T03:13:16.131Z,994.02
2019-03-08T03:13:42.415Z,994.06
2019-03-08T03:14:08.522Z,994.12
2019-03-08T03:14:34.632Z,994.09
2019-03-08T03:15:00.920Z,993.98
2019-03-08T03:15:27.055Z,994.1
2019-03-08T03:15:53.162Z,994.1
2019-03-08T03:16:19.335Z,994.07
2019-03-08T03:16:45.439Z,994.19
2019-03-08T03:17:11.577Z,994.15
2019-03-08T03:17:37.680Z,994.19
2019-03-08T03:18:03.785Z,994.21
2019-03-08T03:18:30.098Z,994.14
2019-03-08T03:18:56.206Z,994.22
2019-03-08T03:19:22.513Z,994.25
2019-03-08T03:19:48.620Z,994.35
2019-03-08T03:20:14.772Z,994.22
2019-03-08T03:20:41.102Z,994.23
2019-03-08T03:21:07.212Z,994.27
2019-03-08T03:21:33.317Z,994.36
2019-03-08T03:21:59.703Z,994.3
2019-03-08T03:22:25.817Z,994.27
2019-03-08T03:22:52.307Z,994.31
2019-03-08T03:23:18.407Z,994.22
2019-03-08T03:23:44.518Z,994.24
2019-03-08T03:24:10.700Z,994.34
2019-03-08T03:24:36.806Z,994.4
2019-03-08T03:25:02.916Z,994.22
2019-03-08T03:25:29.066Z,994.22
2019-03-08T03:25:55.176Z,994.39
2019-03-08T03:26:21.412Z,994.39
2019-03-08T03:26:47.518Z,994.37
2019-03-08T03:27:13.632Z,994.53
2019-03-08T03:27:39.961Z,994.44
2019-03-08T03:28:06.067Z,994.41
2019-03-08T03:28:32.383Z,994.45
2019-03-08T03:28:58.519Z,994.49
2019-03-08T03:29:24.624Z,994.36
2019-03-08T03:29:50.857Z,994.57
2019-03-08T03:30:16.965Z,994.65
2019-03-08T03:30:43.145Z,994.24
2019-03-08T03:31:09.481Z,994.49
2019-03-08T03:31:35.590Z,994.65
2019-03-08T03:32:02.075Z,994.61
2019-03-08T03:32:28.205Z,994.56
2019-03-08T03:32:54.354Z,994.6
2019-03-08T03:33:20.697Z,994.41
2019-03-08T03:33:46.851Z,994.62
2019-03-08T03:34:12.960Z,994.6
2019-03-08T03:34:39.209Z,994.66
2019-03-08T03:35:05.409Z,994.69
2019-03-08T03:35:31.635Z,994.64
2019-03-08T03:35:57.769Z,994.64
2019-03-08T03:36:23.878Z,994.68
2019-03-08T03:36:50.118Z,994.61
2019-03-08T03:37:16.224Z,994.78
2019-03-08T03:37:42.581Z,994.49
2019-03-08T03:38:08.689Z,994.68
2019-03-08T03:38:34.786Z,994.78
2019-03-08T03:39:01.114Z,994.71
2019-03-08T03:39:27.217Z,994.76
2019-03-08T03:39:53.319Z,994.81
2019-03-08T03:40:19.577Z,994.74
2019-03-08T03:40:45.678Z,994.73
2019-03-08T03:41:12.008Z,994.76
2019-03-08T03:41:38.110Z,994.71
2019-03-08T03:42:04.218Z,994.72
2019-03-08T03:42:30.544Z,994.78
2019-03-08T03:42:56.648Z,994.76
2019-03-08T03:43:22.955Z,994.95
2019-03-08T03:43:49.066Z,994.81
2019-03-08T03:44:15.168Z,994.85
2019-03-08T03:44:41.546Z,994.8
2019-03-08T03:45:07.640Z,994.78
2019-03-08T03:45:33.748Z,994.77
2019-03-08T03:46:00.125Z,994.83
2019-03-08T03:46:26.252Z,994.86
2019-03-08T03:46:52.634Z,994.92
2019-03-08T03:47:18.744Z,994.93
2019-03-08T03:47:44.899Z,994.81
2019-03-08T03:48:11.088Z,994.97
2019-03-08T03:48:37.195Z,994.98
2019-03-08T03:49:03.305Z,994.96
2019-03-08T03:49:29.521Z,995.05
2019-03-08T03:49:55.626Z,994.97
2019-03-08T03:50:21.965Z,995
2019-03-08T03:50:48.072Z,994.95
2019-03-08T03:51:14.186Z,994.98
2019-03-08T03:51:40.448Z,995.09
2019-03-08T03:52:06.561Z,994.96
2019-03-08T03:52:32.807Z,995.02
2019-03-08T03:52:58.911Z,995.16
2019-03-08T03:53:25.019Z,995.05
2019-03-08T03:53:51.284Z,995.05
2019-03-08T03:54:17.413Z,995.07
2019-03-08T03:54:43.519Z,995.09
2019-03-08T03:55:09.759Z,995.24
2019-03-08T03:55:35.889Z,995.15
2019-03-08T03:56:02.267Z,995.05
2019-03-08T03:56:28.400Z,995.19
2019-03-08T03:56:54.507Z,995.2
2019-03-08T03:57:20.970Z,995.08
2019-03-08T03:57:47.081Z,995.02
2019-03-08T03:58:13.328Z,995.23
2019-03-08T03:58:39.433Z,995.27
2019-03-08T03:59:05.539Z,995.17
2019-03-08T03:59:31.848Z,995.15
2019-03-08T03:59:57.952Z,995.18
2019-03-08T04:00:24.087Z,995.15
2019-03-08T04:00:50.489Z,995.3
2019-03-08T04:01:16.601Z,995.24
2019-03-08T04:01:42.955Z,995.19
2019-03-08T04:02:09.059Z,995.19
2019-03-08T04:02:35.165Z,995.23
2019-03-08T04:03:01.511Z,995.25
2019-03-08T04:03:27.614Z,995.27
2019-03-08T04:03:53.722Z,995.3
2019-03-08T04:04:19.836Z,995.34
2019-03-08T04:04:45.942Z,995.36
2019-03-08T04:05:12.241Z,995.23
2019-03-08T04:05:38.357Z,995.33
2019-03-08T04:06:04.457Z,995.42
2019-03-08T04:06:30.766Z,995.38
2019-03-08T04:06:57.834Z,995.34
2019-03-08T04:07:23.957Z,995.4
2019-03-08T04:07:50.064Z,995.46
2019-03-08T04:08:16.167Z,995.29
2019-03-08T04:08:42.416Z,995.34
2019-03-08T04:09:08.507Z,995.31
2019-03-08T04:09:34.619Z,995.34
2019-03-08T04:10:00.941Z,995.46
2019-03-08T04:10:27.056Z,995.39
2019-03-08T04:10:53.365Z,995.39
2019-03-08T04:11:19.470Z,995.48
2019-03-08T04:11:45.615Z,995.52
2019-03-08T04:12:11.919Z,995.5
2019-03-08T04:12:38.060Z,995.5
2019-03-08T04:13:04.372Z,995.48
2019-03-08T04:13:30.479Z,995.49
2019-03-08T04:13:56.578Z,995.45
2019-03-08T04:14:22.951Z,995.46
2019-03-08T04:14:49.061Z,995.55
2019-03-08T04:15:15.165Z,995.59
2019-03-08T04:15:41.351Z,995.51
2019-03-08T04:16:07.456Z,995.57
2019-03-08T04:16:33.668Z,995.61
2019-03-08T04:16:59.772Z,995.65
2019-03-08T04:17:25.878Z,995.66
2019-03-08T04:17:52.203Z,995.55
2019-03-08T04:18:18.310Z,995.63
2019-03-08T04:18:44.443Z,995.63
2019-03-08T04:19:10.676Z,995.65
2019-03-08T04:19:36.785Z,995.68
2019-03-08T04:20:03.014Z,995.73
2019-03-08T04:20:29.147Z,995.71
2019-03-08T04:20:55.270Z,995.69
2019-03-08T04:21:21.548Z,995.64
2019-03-08T04:21:47.651Z,995.74
2019-03-08T04:22:13.895Z,995.76
2019-03-08T04:22:39.999Z,995.76
2019-03-08T04:23:06.104Z,995.8
2019-03-08T04:23:32.344Z,995.75
2019-03-08T04:23:58.455Z,995.81
2019-03-08T04:24:24.595Z,995.7
2019-03-08T04:24:50.909Z,995.74
2019-03-08T04:25:17.006Z,995.77
2019-03-08T04:25:43.229Z,995.67
2019-03-08T04:26:09.365Z,995.76
2019-03-08T04:26:35.475Z,995.75
2019-03-08T04:27:01.683Z,995.79
2019-03-08T04:27:27.785Z,995.76
2019-03-08T04:27:53.894Z,995.77
2019-03-08T04:28:20.168Z,995.79
2019-03-08T04:28:46.297Z,995.81
2019-03-08T04:29:12.487Z,995.8
2019-03-08T04:29:38.622Z,995.82
2019-03-08T04:30:04.723Z,995.86
2019-03-08T04:30:31.049Z,995.73
2019-03-08T04:30:57.152Z,995.9
2019-03-08T04:31:23.455Z,995.9
2019-03-08T04:31:49.563Z,995.74
2019-03-08T04:32:15.666Z,995.92
2019-03-08T04:32:41.957Z,995.75
2019-03-08T04:33:08.056Z,995.88
2019-03-08T04:33:34.166Z,995.86
2019-03-08T04:34:00.326Z,996.01
2019-03-08T04:34:26.432Z,995.87
2019-03-08T04:34:52.747Z,995.87
2019-03-08T04:35:18.859Z,995.86
2019-03-08T04:35:44.963Z,995.89
2019-03-08T04:36:11.178Z,995.86
2019-03-08T04:36:37.282Z,995.88
2019-03-08T04:37:03.391Z,995.87
2019-03-08T04:37:29.665Z,995.89
2019-03-08T04:37:55.774Z,995.89
2019-03-08T04:38:22.027Z,995.96
2019-03-08T04:38:48.138Z,995.94
2019-03-08T04:39:14.242Z,996.03
2019-03-08T04:39:40.507Z,995.94
2019-03-08T04:40:06.619Z,995.89
2019-03-08T04:40:32.928Z,995.89
2019-03-08T04:40:59.038Z,995.97
2019-03-08T04:41:25.133Z,995.97
2019-03-08T04:41:51.306Z,995.99
2019-03-08T04:42:17.412Z,996.03
2019-03-08T04:42:43.549Z,995.87
2019-03-08T04:43:09.917Z,996.07
2019-03-08T04:43:36.022Z,996.03
2019-03-08T04:44:02.270Z,995.95
2019-03-08T04:44:28.386Z,996.12
2019-03-08T04:44:54.496Z,996.12
2019-03-08T04:45:20.927Z,996.07
2019-03-08T04:45:47.034Z,996.09
2019-03-08T04:46:13.180Z,996.12
2019-03-08T04:46:39.329Z,996.12
2019-03-08T04:47:05.438Z,996.18
2019-03-08T04:47:31.684Z,996.15
2019-03-08T04:47:57.790Z,996.09
2019-03-08T04:48:23.901Z,996.16
2019-03-08T04:48:50.058Z,996.12
2019-03-08T04:49:16.167Z,996.15
2019-03-08T04:49:42.460Z,996.22
2019-03-08T04:50:08.592Z,996.19
2019-03-08T04:50:34.698Z,996.13
2019-03-08T04:51:00.819Z,996.21
2019-03-08T04:51:26.927Z,996.25
2019-03-08T04:51:53.025Z,996.2
2019-03-08T04:52:19.518Z,996.19
2019-03-08T04:52:45.615Z,996.22
2019-03-08T04:53:11.965Z,996.36
2019-03-08T04:53:38.068Z,996.26
2019-03-08T04:54:04.171Z,996.31
2019-03-08T04:54:30.435Z,996.36
2019-03-08T04:54:56.549Z,996.31
2019-03-08T04:55:23.644Z,996.35
2019-03-08T04:55:49.751Z,996.16
2019-03-08T04:56:15.856Z,996.29
2019-03-08T04:56:42.139Z,996.32
2019-03-08T04:57:08.253Z,996.32
2019-03-08T04:57:34.356Z,996.35
2019-03-08T04:58:00.756Z,996.38
2019-03-08T04:58:26.858Z,996.44
2019-03-08T04:58:53.031Z,996.42
2019-03-08T04:59:19.137Z,996.38
2019-03-08T04:59:45.249Z,996.31
2019-03-08T05:00:11.559Z,996.35
2019-03-08T05:00:37.654Z,996.39
2019-03-08T05:01:03.768Z,996.44
2019-03-08T05:01:29.964Z,996.47
2019-03-08T05:01:56.071Z,996.41
2019-03-08T05:02:22.331Z,996.38
2019-03-08T05:02:48.439Z,996.4
2019-03-08T05:03:14.547Z,996.43
2019-03-08T05:03:40.699Z,996.47
2019-03-08T05:04:06.800Z,996.5
2019-03-08T05:04:33.095Z,996.48
2019-03-08T05:04:59.196Z,996.46
2019-03-08T05:05:25.329Z,996.52
2019-03-08T05:05:51.634Z,996.41
2019-03-08T05:06:17.737Z,996.5
2019-03-08T05:06:43.843Z,996.48
2019-03-08T05:07:10.205Z,996.48
2019-03-08T05:07:36.313Z,996.51
2019-03-08T05:08:02.557Z,996.52
2019-03-08T05:08:28.686Z,996.49
2019-03-08T05:08:54.825Z,996.52
2019-03-08T05:09:21.107Z,996.56
2019-03-08T05:09:47.244Z,996.54
2019-03-08T05:10:13.348Z,996.53
2019-03-08T05:10:39.601Z,996.52
2019-03-08T05:11:05.707Z,996.54
2019-03-08T05:11:31.906Z,996.56
2019-03-08T05:11:58.018Z,996.54
2019-03-08T05:12:24.148Z,996.59
2019-03-08T05:12:51.272Z,996.57
2019-03-08T05:13:17.380Z,996.59
2019-03-08T05:13:43.629Z,996.61
2019-03-08T05:14:09.733Z,996.61
2019-03-08T05:14:35.834Z,996.66
2019-03-08T05:15:02.089Z,996.62
2019-03-08T05:15:28.197Z,996.67
2019-03-08T05:15:54.304Z,996.65
2019-03-08T05:16:20.610Z,996.65
2019-03-08T05:16:46.717Z,996.7
2019-03-08T05:17:12.950Z,996.59
2019-03-08T05:17:39.079Z,996.64
2019-03-08T05:18:05.214Z,996.71
2019-03-08T05:18:32.942Z,996.66
2019-03-08T05:18:58.582Z,996.71
2019-03-08T05:19:24.898Z,996.75
2019-03-08T05:19:51.002Z,996.71
2019-03-08T05:20:17.105Z,996.73
2019-03-08T05:20:43.388Z,996.7
2019-03-08T05:21:09.522Z,996.71
2019-03-08T05:21:36.014Z,996.66
2019-03-08T05:22:02.427Z,996.74
2019-03-08T05:22:28.536Z,996.62
2019-03-08T05:22:54.869Z,996.81
2019-03-08T05:23:20.979Z,996.71
2019-03-08T05:23:47.093Z,996.75
2019-03-08T05:24:13.466Z,996.75
2019-03-08T05:24:39.598Z,996.79
2019-03-08T05:25:05.821Z,996.8
2019-03-08T05:25:32.121Z,996.73
2019-03-08T05:25:58.233Z,996.88
2019-03-08T05:26:24.554Z,996.75
2019-03-08T05:26:50.628Z,996.78
2019-03-08T05:27:16.738Z,996.78
2019-03-08T05:27:43.072Z,996.8
2019-03-08T05:28:10.166Z,996.85